Погода METAR - Красноярск

Код аэропорта ICAO:
Кемерово, Абакан, Красноярск, Новосибирск
Код METAR: UNKL 052230Z 13001MPS CAVOK M05/M09 Q1023 R11/CLRD65 NOSIG RMK QFE741
TAF UNKL 052000Z 0521/0621 10003MPS 9999 SCT030 
     FM060000 12003G10MPS CAVOK 
     FM061500 18003MPS 9999 SCT030
       

Погода - Сейчас

Время: 2020-04-06 05:30, местное
Направление ветра: Юго-восток (130°)
Скорость ветра: 1 м/с
Видимость: более 10км, отсутствие осадков и облаков
Температура: -5°C
Точка росы: -9°C
Атмосферное давление: 1023 гПа

Архив погоды

Время, местное Направление Скорость, м/с Температура, °C Точка росы, °C Давление, гПа
2020-04-06 05:30 ЮВ (130°) 1 -5 -9 1023
2020-04-05 23:00 Ю (170°) 2 -3 -9 1029
2020-04-05 13:00 ВЮВ (110°) 7, порывы до 12 7 -11 1034
2020-04-02 05:00 ЗЮЗ (260°) 1 -3 -7 1020
2020-04-01 22:30 Штиль 0 1 -5 1020
2020-03-30 09:00 ЗЮЗ (240°) 7, порывы до 15 0 -6 1023
2020-03-30 01:30 ЗЮЗ (260°) 5 -1 -3 1021
2020-03-28 07:00 З (270°) 3 -1 -3 1006
2020-03-27 07:00 ЮЗ (230°) 6, порывы до 11 0 -19 1019
2020-03-26 17:00 ЗЮЗ (250°) 7 1 -12 1028
2020-03-22 02:30 ЮЮЗ (200°) 3 4 -8 1005
2020-03-20 08:30 ЮЗ (210°) 4 -2 -6 1010
2020-03-20 02:00 ЗЮЗ (240°) 3 -3 -6 1012
2020-03-19 21:00 ЗЮЗ (240°) 3 -2 -8 1012
2020-03-18 21:30 ЗЮЗ (250°) 6 -1 -4 1010
2020-03-18 16:30 ЗЮЗ (260°) 9, порывы до 16 2 -8 1008
2020-03-13 17:00 ЗЮЗ (250°) 6, порывы до 12 7 -5 1021
2020-03-11 18:00 ЗЮЗ (240°) 5, порывы до 10 -3 -11 1026
2020-03-11 08:30 ЗЮЗ (250°) 4 -10 -13 1028
2020-03-09 03:00 ЗЮЗ (250°) 8 -7 -10 1018
2020-03-06 12:30 З (270°) 9 -9 -15 1013
2020-03-05 18:00 ЗЮЗ (240°) 2, порывы до 8 -1 -3 1004
2020-03-04 08:30 Штиль 0 -10 -11 1013
2020-03-04 00:30 Штиль 0 -4 -7 1016
2020-03-01 13:30 СЗ (300°) 4 -3 -10 1033
2020-02-29 06:30 ЗЮЗ (240°) 4 -4 -7 1023
2020-02-29 06:00 ЗЮЗ (240°) 5 -4 -7 1023
2020-02-26 23:30 Штиль 0 -17 -19 1027
2020-02-25 21:00 З (270°) 1 -11 -13 1026
2020-02-25 09:00 Штиль 0 -13 -15 1027
2020-02-25 05:00 Штиль 0 -15 -17 1027
2020-02-24 05:30 С (350°) 1 -11 -13 1028
2020-02-22 06:00 ЗЮЗ (240°) 2 -6 -7 1014
2020-02-22 04:00 Ю (190°) 1 -5 -6 1014
2020-02-21 23:00 З (270°) 4 -3 -6 1016
2020-02-18 08:00 Штиль 0 -11 -13 1028
2020-02-17 05:00 Штиль 0 -18 -21 1035
2020-02-17 00:00 Штиль 0 -16 -17 1037
2020-02-16 08:30 Штиль 0 -17 -20 1036
2020-02-15 21:30 ЮЮВ (160°) 1 -12 -14 1035
2020-02-15 14:30 ВЮВ (110°) 1 -6 -11 1035
2020-02-14 14:00 ЮЮВ (150°) 1 -5 -12 1034
2020-02-11 10:00 ЗСЗ (290°) 3 -19 -22 1019
2020-02-10 15:00 СЗ (310°) 4 -7 -9 1002
2020-02-09 04:30 ЗЮЗ (250°) 7 5 -3 995
2020-02-08 14:00 ВЮВ (110°) 2 -2 -5 1013
2020-02-07 12:30 ЗЮЗ (240°) 5 -2 -10 1019
2020-02-07 08:30 ЗЮЗ (240°) 3 -1 -6 1017